Terminal Aerodrome Forecast
Issued by NWS Kansas City/Pleasant Hill, MO

Home | Current Version | Previous Version | Text Only | Print | Product List | Glossary On
Versions: 1 2 3 4 5 6 7 8 9 10 11 12 13 14 15 16
985
FTUS43 KEAX 312320
TAFMCI
TAF
KMCI 312320Z 0100/0124 24005KT P6SM VCTS SCT035CB BKN100
     FM010200 33005KT P6SM SCT150=

USA.gov is the U.S. government's official web portal to all federal, state and local government web resources and services.